sensor_id;sensor_type;location;lat;lon;timestamp;P1;durP1;ratioP1;P2;durP2;ratioP2
677;SDS011;321;48.814;9.132;2023-08-30T00:00:07;1.93;;;1.70;;
677;SDS011;321;48.814;9.132;2023-08-30T00:02:35;2.27;;;2.07;;
677;SDS011;321;48.814;9.132;2023-08-30T00:05:02;1.80;;;1.70;;
677;SDS011;321;48.814;9.132;2023-08-30T00:07:28;1.80;;;1.70;;
677;SDS011;321;48.814;9.132;2023-08-30T00:09:54;1.73;;;1.63;;
677;SDS011;321;48.814;9.132;2023-08-30T00:12:20;1.63;;;1.53;;
677;SDS011;321;48.814;9.132;2023-08-30T00:14:46;2.70;;;2.50;;
677;SDS011;321;48.814;9.132;2023-08-30T00:17:12;1.83;;;1.63;;
677;SDS011;321;48.814;9.132;2023-08-30T00:19:38;1.60;;;1.50;;
677;SDS011;321;48.814;9.132;2023-08-30T00:22:03;3.57;;;2.63;;
677;SDS011;321;48.814;9.132;2023-08-30T00:24:32;1.83;;;1.73;;
677;SDS011;321;48.814;9.132;2023-08-30T00:26:58;2.57;;;2.37;;
677;SDS011;321;48.814;9.132;2023-08-30T00:29:23;2.20;;;2.00;;
677;SDS011;321;48.814;9.132;2023-08-30T00:31:49;2.27;;;2.07;;
677;SDS011;321;48.814;9.132;2023-08-30T00:34:14;1.50;;;1.40;;
677;SDS011;321;48.814;9.132;2023-08-30T00:36:40;2.20;;;2.10;;
677;SDS011;321;48.814;9.132;2023-08-30T00:39:05;2.90;;;1.27;;
677;SDS011;321;48.814;9.132;2023-08-30T00:41:32;2.10;;;1.90;;
677;SDS011;321;48.814;9.132;2023-08-30T00:43:58;1.67;;;1.57;;
677;SDS011;321;48.814;9.132;2023-08-30T00:46:23;2.00;;;1.83;;
677;SDS011;321;48.814;9.132;2023-08-30T00:48:49;1.93;;;1.83;;
677;SDS011;321;48.814;9.132;2023-08-30T00:51:15;2.40;;;1.90;;
677;SDS011;321;48.814;9.132;2023-08-30T00:53:40;2.20;;;2.00;;
677;SDS011;321;48.814;9.132;2023-08-30T00:56:06;1.67;;;1.57;;
677;SDS011;321;48.814;9.132;2023-08-30T00:58:31;1.97;;;1.87;;
677;SDS011;321;48.814;9.132;2023-08-30T01:00:58;1.57;;;1.43;;
677;SDS011;321;48.814;9.132;2023-08-30T01:03:23;2.53;;;2.33;;
677;SDS011;321;48.814;9.132;2023-08-30T01:05:49;2.50;;;1.77;;
677;SDS011;321;48.814;9.132;2023-08-30T01:08:15;1.60;;;1.50;;
677;SDS011;321;48.814;9.132;2023-08-30T01:10:53;2.17;;;1.70;;
677;SDS011;321;48.814;9.132;2023-08-30T01:13:23;6.40;;;2.00;;
677;SDS011;321;48.814;9.132;2023-08-30T01:15:52;1.97;;;1.50;;
677;SDS011;321;48.814;9.132;2023-08-30T01:18:20;2.07;;;1.97;;
677;SDS011;321;48.814;9.132;2023-08-30T01:20:49;1.53;;;1.43;;
677;SDS011;321;48.814;9.132;2023-08-30T01:25:53;3.00;;;2.20;;
677;SDS011;321;48.814;9.132;2023-08-30T01:28:28;1.17;;;1.07;;
677;SDS011;321;48.814;9.132;2023-08-30T01:30:56;2.03;;;1.87;;
677;SDS011;321;48.814;9.132;2023-08-30T01:33:23;1.43;;;1.33;;
677;SDS011;321;48.814;9.132;2023-08-30T01:35:53;1.60;;;1.50;;
677;SDS011;321;48.814;9.132;2023-08-30T01:38:20;1.53;;;1.43;;
677;SDS011;321;48.814;9.132;2023-08-30T01:40:47;5.57;;;1.90;;
677;SDS011;321;48.814;9.132;2023-08-30T01:43:14;1.93;;;1.73;;
677;SDS011;321;48.814;9.132;2023-08-30T01:45:41;1.77;;;1.67;;
677;SDS011;321;48.814;9.132;2023-08-30T01:48:09;1.73;;;1.37;;
677;SDS011;321;48.814;9.132;2023-08-30T01:50:38;1.70;;;1.60;;
677;SDS011;321;48.814;9.132;2023-08-30T01:53:04;1.60;;;1.50;;
677;SDS011;321;48.814;9.132;2023-08-30T01:55:31;3.83;;;1.67;;
677;SDS011;321;48.814;9.132;2023-08-30T01:57:57;1.93;;;1.73;;
677;SDS011;321;48.814;9.132;2023-08-30T02:00:23;1.67;;;1.03;;
677;SDS011;321;48.814;9.132;2023-08-30T02:02:49;2.30;;;2.10;;
677;SDS011;321;48.814;9.132;2023-08-30T02:05:14;2.73;;;1.47;;
677;SDS011;321;48.814;9.132;2023-08-30T02:07:43;3.57;;;1.63;;
677;SDS011;321;48.814;9.132;2023-08-30T02:10:21;1.57;;;1.47;;
677;SDS011;321;48.814;9.132;2023-08-30T02:12:50;4.50;;;1.47;;
677;SDS011;321;48.814;9.132;2023-08-30T02:15:18;1.70;;;1.60;;
677;SDS011;321;48.814;9.132;2023-08-30T02:17:45;1.40;;;1.30;;
677;SDS011;321;48.814;9.132;2023-08-30T02:20:13;1.73;;;1.63;;
677;SDS011;321;48.814;9.132;2023-08-30T02:22:38;1.87;;;1.67;;
677;SDS011;321;48.814;9.132;2023-08-30T02:25:04;1.60;;;1.50;;
677;SDS011;321;48.814;9.132;2023-08-30T02:27:31;1.67;;;1.57;;
677;SDS011;321;48.814;9.132;2023-08-30T02:29:57;1.50;;;1.40;;
677;SDS011;321;48.814;9.132;2023-08-30T02:32:23;2.27;;;1.50;;
677;SDS011;321;48.814;9.132;2023-08-30T02:34:50;1.57;;;1.47;;
677;SDS011;321;48.814;9.132;2023-08-30T02:37:16;1.60;;;1.50;;
677;SDS011;321;48.814;9.132;2023-08-30T02:39:42;1.60;;;1.50;;
677;SDS011;321;48.814;9.132;2023-08-30T02:42:08;1.90;;;1.80;;
677;SDS011;321;48.814;9.132;2023-08-30T02:44:33;2.00;;;1.90;;
677;SDS011;321;48.814;9.132;2023-08-30T02:46:59;1.80;;;1.70;;
677;SDS011;321;48.814;9.132;2023-08-30T02:49:24;1.30;;;1.20;;
677;SDS011;321;48.814;9.132;2023-08-30T02:51:50;2.10;;;1.60;;
677;SDS011;321;48.814;9.132;2023-08-30T02:54:15;1.57;;;1.47;;
677;SDS011;321;48.814;9.132;2023-08-30T02:56:41;1.73;;;1.63;;
677;SDS011;321;48.814;9.132;2023-08-30T02:59:08;2.70;;;2.40;;
677;SDS011;321;48.814;9.132;2023-08-30T03:01:34;1.47;;;1.37;;
677;SDS011;321;48.814;9.132;2023-08-30T03:04:00;1.73;;;1.57;;
677;SDS011;321;48.814;9.132;2023-08-30T03:06:25;1.57;;;1.47;;
677;SDS011;321;48.814;9.132;2023-08-30T03:08:52;1.43;;;1.30;;
677;SDS011;321;48.814;9.132;2023-08-30T03:11:18;2.00;;;1.70;;
677;SDS011;321;48.814;9.132;2023-08-30T03:13:44;2.63;;;2.43;;
677;SDS011;321;48.814;9.132;2023-08-30T03:16:13;1.53;;;1.27;;
677;SDS011;321;48.814;9.132;2023-08-30T03:18:39;1.97;;;1.83;;
677;SDS011;321;48.814;9.132;2023-08-30T03:21:06;1.03;;;0.93;;
677;SDS011;321;48.814;9.132;2023-08-30T03:23:32;1.90;;;1.80;;
677;SDS011;321;48.814;9.132;2023-08-30T03:25:59;1.50;;;1.40;;
677;SDS011;321;48.814;9.132;2023-08-30T03:28:25;1.70;;;1.57;;
677;SDS011;321;48.814;9.132;2023-08-30T03:30:52;2.43;;;2.23;;
677;SDS011;321;48.814;9.132;2023-08-30T03:33:17;1.63;;;1.53;;
677;SDS011;321;48.814;9.132;2023-08-30T03:35:43;1.77;;;1.67;;
677;SDS011;321;48.814;9.132;2023-08-30T03:38:08;2.10;;;1.90;;
677;SDS011;321;48.814;9.132;2023-08-30T03:40:34;2.23;;;2.03;;
677;SDS011;321;48.814;9.132;2023-08-30T03:43:00;1.83;;;1.70;;
677;SDS011;321;48.814;9.132;2023-08-30T03:45:25;2.10;;;2.00;;
677;SDS011;321;48.814;9.132;2023-08-30T03:47:51;1.23;;;1.13;;
677;SDS011;321;48.814;9.132;2023-08-30T03:50:17;2.27;;;2.07;;
677;SDS011;321;48.814;9.132;2023-08-30T03:52:42;1.97;;;1.87;;
677;SDS011;321;48.814;9.132;2023-08-30T03:55:08;1.73;;;1.63;;
677;SDS011;321;48.814;9.132;2023-08-30T03:57:33;1.37;;;1.27;;
677;SDS011;321;48.814;9.132;2023-08-30T03:59:59;1.53;;;1.43;;
677;SDS011;321;48.814;9.132;2023-08-30T04:02:25;1.57;;;1.47;;
677;SDS011;321;48.814;9.132;2023-08-30T04:04:50;1.60;;;1.50;;
677;SDS011;321;48.814;9.132;2023-08-30T04:07:16;3.10;;;2.80;;
677;SDS011;321;48.814;9.132;2023-08-30T04:09:41;3.40;;;2.67;;
677;SDS011;321;48.814;9.132;2023-08-30T04:12:07;2.00;;;1.80;;
677;SDS011;321;48.814;9.132;2023-08-30T04:14:32;6.53;;;2.20;;
677;SDS011;321;48.814;9.132;2023-08-30T04:16:59;2.10;;;2.00;;
677;SDS011;321;48.814;9.132;2023-08-30T04:19:24;2.00;;;1.90;;
677;SDS011;321;48.814;9.132;2023-08-30T04:21:50;2.40;;;2.20;;
677;SDS011;321;48.814;9.132;2023-08-30T04:24:15;3.20;;;1.90;;
677;SDS011;321;48.814;9.132;2023-08-30T04:26:41;1.93;;;1.73;;
677;SDS011;321;48.814;9.132;2023-08-30T04:29:07;1.93;;;1.60;;
677;SDS011;321;48.814;9.132;2023-08-30T04:31:32;1.97;;;1.87;;
677;SDS011;321;48.814;9.132;2023-08-30T04:33:58;2.23;;;2.10;;
677;SDS011;321;48.814;9.132;2023-08-30T04:36:23;2.10;;;2.00;;
677;SDS011;321;48.814;9.132;2023-08-30T04:38:49;2.20;;;2.00;;
677;SDS011;321;48.814;9.132;2023-08-30T04:41:14;1.53;;;1.43;;
677;SDS011;321;48.814;9.132;2023-08-30T04:43:40;4.40;;;2.33;;
677;SDS011;321;48.814;9.132;2023-08-30T04:46:06;2.40;;;2.30;;
677;SDS011;321;48.814;9.132;2023-08-30T04:48:31;2.40;;;2.20;;
677;SDS011;321;48.814;9.132;2023-08-30T04:51:03;1.50;;;1.40;;
677;SDS011;321;48.814;9.132;2023-08-30T04:53:29;1.97;;;1.87;;
677;SDS011;321;48.814;9.132;2023-08-30T04:55:55;3.47;;;2.97;;
677;SDS011;321;48.814;9.132;2023-08-30T04:58:21;2.37;;;2.17;;
677;SDS011;321;48.814;9.132;2023-08-30T05:00:48;2.10;;;2.00;;
677;SDS011;321;48.814;9.132;2023-08-30T05:03:14;2.30;;;2.10;;
677;SDS011;321;48.814;9.132;2023-08-30T05:05:39;2.23;;;2.00;;
677;SDS011;321;48.814;9.132;2023-08-30T05:08:05;2.10;;;1.97;;
677;SDS011;321;48.814;9.132;2023-08-30T05:10:32;2.13;;;1.97;;
677;SDS011;321;48.814;9.132;2023-08-30T05:12:57;2.13;;;1.80;;
677;SDS011;321;48.814;9.132;2023-08-30T05:15:23;2.10;;;2.00;;
677;SDS011;321;48.814;9.132;2023-08-30T05:17:48;2.43;;;2.23;;
677;SDS011;321;48.814;9.132;2023-08-30T05:20:14;2.50;;;2.30;;
677;SDS011;321;48.814;9.132;2023-08-30T05:22:39;2.13;;;1.90;;
677;SDS011;321;48.814;9.132;2023-08-30T05:25:05;2.90;;;2.53;;
677;SDS011;321;48.814;9.132;2023-08-30T05:27:31;4.17;;;3.23;;
677;SDS011;321;48.814;9.132;2023-08-30T05:29:56;3.23;;;3.03;;
677;SDS011;321;48.814;9.132;2023-08-30T05:32:22;2.20;;;1.90;;
677;SDS011;321;48.814;9.132;2023-08-30T05:34:47;1.63;;;1.53;;
677;SDS011;321;48.814;9.132;2023-08-30T05:37:13;2.03;;;1.90;;
677;SDS011;321;48.814;9.132;2023-08-30T05:39:38;2.37;;;2.17;;
677;SDS011;321;48.814;9.132;2023-08-30T05:42:04;2.73;;;2.23;;
677;SDS011;321;48.814;9.132;2023-08-30T05:44:30;2.10;;;1.97;;
677;SDS011;321;48.814;9.132;2023-08-30T05:46:55;1.80;;;1.70;;
677;SDS011;321;48.814;9.132;2023-08-30T05:49:21;1.83;;;1.73;;
677;SDS011;321;48.814;9.132;2023-08-30T05:51:47;3.47;;;2.57;;
677;SDS011;321;48.814;9.132;2023-08-30T05:54:12;2.60;;;1.77;;
677;SDS011;321;48.814;9.132;2023-08-30T05:56:39;2.03;;;1.83;;
677;SDS011;321;48.814;9.132;2023-08-30T05:59:04;2.20;;;2.00;;
677;SDS011;321;48.814;9.132;2023-08-30T06:01:30;4.90;;;1.90;;
677;SDS011;321;48.814;9.132;2023-08-30T06:03:55;2.03;;;1.93;;
677;SDS011;321;48.814;9.132;2023-08-30T06:06:21;2.33;;;2.13;;
677;SDS011;321;48.814;9.132;2023-08-30T06:08:47;2.73;;;2.53;;
677;SDS011;321;48.814;9.132;2023-08-30T06:11:12;2.40;;;2.20;;
677;SDS011;321;48.814;9.132;2023-08-30T06:13:39;2.50;;;2.10;;
677;SDS011;321;48.814;9.132;2023-08-30T06:16:04;1.93;;;1.83;;
677;SDS011;321;48.814;9.132;2023-08-30T06:18:30;1.90;;;1.80;;
677;SDS011;321;48.814;9.132;2023-08-30T06:20:57;2.20;;;2.00;;
677;SDS011;321;48.814;9.132;2023-08-30T06:23:23;2.67;;;2.23;;
677;SDS011;321;48.814;9.132;2023-08-30T06:25:55;2.30;;;2.10;;
677;SDS011;321;48.814;9.132;2023-08-30T06:28:21;1.93;;;1.83;;
677;SDS011;321;48.814;9.132;2023-08-30T06:30:47;1.70;;;1.60;;
677;SDS011;321;48.814;9.132;2023-08-30T06:33:13;2.67;;;2.47;;
677;SDS011;321;48.814;9.132;2023-08-30T06:35:39;2.47;;;2.27;;
677;SDS011;321;48.814;9.132;2023-08-30T06:38:04;2.07;;;1.97;;
677;SDS011;321;48.814;9.132;2023-08-30T06:40:30;2.37;;;2.20;;
677;SDS011;321;48.814;9.132;2023-08-30T06:42:56;2.13;;;1.83;;
677;SDS011;321;48.814;9.132;2023-08-30T06:45:22;2.30;;;2.10;;
677;SDS011;321;48.814;9.132;2023-08-30T06:47:48;2.10;;;1.90;;
677;SDS011;321;48.814;9.132;2023-08-30T06:50:14;2.77;;;2.57;;
677;SDS011;321;48.814;9.132;2023-08-30T06:52:40;1.80;;;1.70;;
677;SDS011;321;48.814;9.132;2023-08-30T06:55:05;1.70;;;1.57;;
677;SDS011;321;48.814;9.132;2023-08-30T06:57:31;2.10;;;1.90;;
677;SDS011;321;48.814;9.132;2023-08-30T06:59:56;2.17;;;2.00;;
677;SDS011;321;48.814;9.132;2023-08-30T07:02:24;7.73;;;2.00;;
677;SDS011;321;48.814;9.132;2023-08-30T07:04:50;2.07;;;1.60;;
677;SDS011;321;48.814;9.132;2023-08-30T07:07:16;1.83;;;1.73;;
677;SDS011;321;48.814;9.132;2023-08-30T07:09:42;1.40;;;1.30;;
677;SDS011;321;48.814;9.132;2023-08-30T07:12:07;2.03;;;1.93;;
677;SDS011;321;48.814;9.132;2023-08-30T07:14:33;1.90;;;1.70;;
677;SDS011;321;48.814;9.132;2023-08-30T07:16:58;1.70;;;1.60;;
677;SDS011;321;48.814;9.132;2023-08-30T07:19:24;1.70;;;1.60;;
677;SDS011;321;48.814;9.132;2023-08-30T07:21:50;1.93;;;1.57;;
677;SDS011;321;48.814;9.132;2023-08-30T07:24:16;3.23;;;1.60;;
677;SDS011;321;48.814;9.132;2023-08-30T07:26:41;1.70;;;1.60;;
677;SDS011;321;48.814;9.132;2023-08-30T07:29:08;1.43;;;1.33;;
677;SDS011;321;48.814;9.132;2023-08-30T07:31:34;2.20;;;2.00;;
677;SDS011;321;48.814;9.132;2023-08-30T07:34:00;1.53;;;1.43;;
677;SDS011;321;48.814;9.132;2023-08-30T07:36:26;1.80;;;1.67;;
677;SDS011;321;48.814;9.132;2023-08-30T07:38:53;7.53;;;2.53;;
677;SDS011;321;48.814;9.132;2023-08-30T07:41:19;1.40;;;1.30;;
677;SDS011;321;48.814;9.132;2023-08-30T07:43:44;2.27;;;2.07;;
677;SDS011;321;48.814;9.132;2023-08-30T07:46:10;1.30;;;1.20;;
677;SDS011;321;48.814;9.132;2023-08-30T07:48:35;1.90;;;1.80;;
677;SDS011;321;48.814;9.132;2023-08-30T07:51:01;1.80;;;1.60;;
677;SDS011;321;48.814;9.132;2023-08-30T07:53:26;1.50;;;1.40;;
677;SDS011;321;48.814;9.132;2023-08-30T07:55:52;1.93;;;1.80;;
677;SDS011;321;48.814;9.132;2023-08-30T07:58:17;2.67;;;2.47;;
677;SDS011;321;48.814;9.132;2023-08-30T08:00:43;1.70;;;1.60;;
677;SDS011;321;48.814;9.132;2023-08-30T08:03:09;1.30;;;1.20;;
677;SDS011;321;48.814;9.132;2023-08-30T08:05:37;1.43;;;1.33;;
677;SDS011;321;48.814;9.132;2023-08-30T08:08:03;2.27;;;2.17;;
677;SDS011;321;48.814;9.132;2023-08-30T08:10:32;1.40;;;1.30;;
677;SDS011;321;48.814;9.132;2023-08-30T08:12:59;1.40;;;1.30;;
677;SDS011;321;48.814;9.132;2023-08-30T08:15:25;4.43;;;1.67;;
677;SDS011;321;48.814;9.132;2023-08-30T08:17:50;2.10;;;1.53;;
677;SDS011;321;48.814;9.132;2023-08-30T08:20:16;1.57;;;1.40;;
677;SDS011;321;48.814;9.132;2023-08-30T08:22:41;2.60;;;2.20;;
677;SDS011;321;48.814;9.132;2023-08-30T08:25:07;3.60;;;1.33;;
677;SDS011;321;48.814;9.132;2023-08-30T08:27:35;1.40;;;1.30;;
677;SDS011;321;48.814;9.132;2023-08-30T08:30:01;1.93;;;1.33;;
677;SDS011;321;48.814;9.132;2023-08-30T08:32:29;2.23;;;2.07;;
677;SDS011;321;48.814;9.132;2023-08-30T08:34:55;1.93;;;1.40;;
677;SDS011;321;48.814;9.132;2023-08-30T08:37:21;1.23;;;1.13;;
677;SDS011;321;48.814;9.132;2023-08-30T08:39:47;1.10;;;0.97;;
677;SDS011;321;48.814;9.132;2023-08-30T08:42:17;1.57;;;1.47;;
677;SDS011;321;48.814;9.132;2023-08-30T08:44:44;1.20;;;1.10;;
677;SDS011;321;48.814;9.132;2023-08-30T08:47:12;2.27;;;1.63;;
677;SDS011;321;48.814;9.132;2023-08-30T08:49:38;1.70;;;1.60;;
677;SDS011;321;48.814;9.132;2023-08-30T08:52:04;1.53;;;1.10;;
677;SDS011;321;48.814;9.132;2023-08-30T08:54:30;1.03;;;0.90;;
677;SDS011;321;48.814;9.132;2023-08-30T08:56:56;1.10;;;1.00;;
677;SDS011;321;48.814;9.132;2023-08-30T08:59:22;1.93;;;1.50;;
677;SDS011;321;48.814;9.132;2023-08-30T09:01:49;1.60;;;1.30;;
677;SDS011;321;48.814;9.132;2023-08-30T09:04:15;1.50;;;1.40;;
677;SDS011;321;48.814;9.132;2023-08-30T09:06:40;2.30;;;1.17;;
677;SDS011;321;48.814;9.132;2023-08-30T09:09:08;1.47;;;1.27;;
677;SDS011;321;48.814;9.132;2023-08-30T09:11:34;5.33;;;1.20;;
677;SDS011;321;48.814;9.132;2023-08-30T09:13:59;1.30;;;1.10;;
677;SDS011;321;48.814;9.132;2023-08-30T09:16:25;1.43;;;1.20;;
677;SDS011;321;48.814;9.132;2023-08-30T09:18:57;1.30;;;1.20;;
677;SDS011;321;48.814;9.132;2023-08-30T09:21:28;1.27;;;0.80;;
677;SDS011;321;48.814;9.132;2023-08-30T09:24:04;1.00;;;0.70;;
677;SDS011;321;48.814;9.132;2023-08-30T09:26:31;1.73;;;1.17;;
677;SDS011;321;48.814;9.132;2023-08-30T09:29:03;0.90;;;0.50;;
677;SDS011;321;48.814;9.132;2023-08-30T09:31:36;1.10;;;0.93;;
677;SDS011;321;48.814;9.132;2023-08-30T09:34:03;1.40;;;1.10;;
677;SDS011;321;48.814;9.132;2023-08-30T09:36:32;1.23;;;0.77;;
677;SDS011;321;48.814;9.132;2023-08-30T09:39:05;1.10;;;0.70;;
677;SDS011;321;48.814;9.132;2023-08-30T09:41:32;1.87;;;0.73;;
677;SDS011;321;48.814;9.132;2023-08-30T09:43:58;1.00;;;0.90;;
677;SDS011;321;48.814;9.132;2023-08-30T09:46:30;1.60;;;0.70;;
677;SDS011;321;48.814;9.132;2023-08-30T09:48:56;1.00;;;0.70;;
677;SDS011;321;48.814;9.132;2023-08-30T09:51:22;0.90;;;0.60;;
677;SDS011;321;48.814;9.132;2023-08-30T09:53:51;0.90;;;0.70;;
677;SDS011;321;48.814;9.132;2023-08-30T09:56:23;1.37;;;0.90;;
677;SDS011;321;48.814;9.132;2023-08-30T09:58:50;1.30;;;0.93;;
677;SDS011;321;48.814;9.132;2023-08-30T10:01:16;0.90;;;0.50;;
677;SDS011;321;48.814;9.132;2023-08-30T10:03:42;1.00;;;0.80;;
677;SDS011;321;48.814;9.132;2023-08-30T10:06:07;1.00;;;0.67;;
677;SDS011;321;48.814;9.132;2023-08-30T10:08:33;1.73;;;0.97;;
677;SDS011;321;48.814;9.132;2023-08-30T10:11:01;1.40;;;0.93;;
677;SDS011;321;48.814;9.132;2023-08-30T10:13:27;1.13;;;0.90;;
677;SDS011;321;48.814;9.132;2023-08-30T10:16:01;0.90;;;0.70;;
677;SDS011;321;48.814;9.132;2023-08-30T10:18:31;1.30;;;0.90;;
677;SDS011;321;48.814;9.132;2023-08-30T10:20:57;1.00;;;0.77;;
677;SDS011;321;48.814;9.132;2023-08-30T10:23:24;0.90;;;0.70;;
677;SDS011;321;48.814;9.132;2023-08-30T10:25:51;0.90;;;0.50;;
677;SDS011;321;48.814;9.132;2023-08-30T10:28:18;0.90;;;0.63;;
677;SDS011;321;48.814;9.132;2023-08-30T10:30:46;1.20;;;1.10;;
677;SDS011;321;48.814;9.132;2023-08-30T10:33:14;1.10;;;0.80;;
677;SDS011;321;48.814;9.132;2023-08-30T10:35:48;1.10;;;0.93;;
677;SDS011;321;48.814;9.132;2023-08-30T10:38:25;1.00;;;0.70;;
677;SDS011;321;48.814;9.132;2023-08-30T10:40:53;2.23;;;1.40;;
677;SDS011;321;48.814;9.132;2023-08-30T10:43:27;1.53;;;1.00;;
677;SDS011;321;48.814;9.132;2023-08-30T10:45:59;0.90;;;0.53;;
677;SDS011;321;48.814;9.132;2023-08-30T10:48:33;1.00;;;0.70;;
677;SDS011;321;48.814;9.132;2023-08-30T10:51:02;1.87;;;0.70;;
677;SDS011;321;48.814;9.132;2023-08-30T10:53:30;0.80;;;0.53;;
677;SDS011;321;48.814;9.132;2023-08-30T10:56:11;1.03;;;0.73;;
677;SDS011;321;48.814;9.132;2023-08-30T10:58:42;1.17;;;0.77;;
677;SDS011;321;48.814;9.132;2023-08-30T11:01:09;0.90;;;0.60;;
677;SDS011;321;48.814;9.132;2023-08-30T11:03:38;1.33;;;0.90;;
677;SDS011;321;48.814;9.132;2023-08-30T11:06:04;2.23;;;0.93;;
677;SDS011;321;48.814;9.132;2023-08-30T11:08:29;1.63;;;0.70;;
677;SDS011;321;48.814;9.132;2023-08-30T11:11:05;1.20;;;0.87;;
677;SDS011;321;48.814;9.132;2023-08-30T11:13:33;0.90;;;0.60;;
677;SDS011;321;48.814;9.132;2023-08-30T11:16:00;1.60;;;0.80;;
677;SDS011;321;48.814;9.132;2023-08-30T11:18:26;1.63;;;1.00;;
677;SDS011;321;48.814;9.132;2023-08-30T11:21:00;1.13;;;0.90;;
677;SDS011;321;48.814;9.132;2023-08-30T11:23:27;1.13;;;1.03;;
677;SDS011;321;48.814;9.132;2023-08-30T11:25:53;1.40;;;1.20;;
677;SDS011;321;48.814;9.132;2023-08-30T11:28:22;1.13;;;0.83;;
677;SDS011;321;48.814;9.132;2023-08-30T11:30:54;1.43;;;1.33;;
677;SDS011;321;48.814;9.132;2023-08-30T11:33:22;1.13;;;0.80;;
677;SDS011;321;48.814;9.132;2023-08-30T11:35:49;1.93;;;1.37;;
677;SDS011;321;48.814;9.132;2023-08-30T11:38:16;2.13;;;1.67;;
677;SDS011;321;48.814;9.132;2023-08-30T11:40:43;1.37;;;1.17;;
677;SDS011;321;48.814;9.132;2023-08-30T11:43:11;1.40;;;1.30;;
677;SDS011;321;48.814;9.132;2023-08-30T11:45:37;1.90;;;1.70;;
677;SDS011;321;48.814;9.132;2023-08-30T11:48:02;2.03;;;1.90;;
677;SDS011;321;48.814;9.132;2023-08-30T11:50:28;1.80;;;1.50;;
677;SDS011;321;48.814;9.132;2023-08-30T11:52:55;1.33;;;1.23;;
677;SDS011;321;48.814;9.132;2023-08-30T11:55:21;3.00;;;1.67;;
677;SDS011;321;48.814;9.132;2023-08-30T11:57:50;2.03;;;1.70;;
677;SDS011;321;48.814;9.132;2023-08-30T12:00:18;1.47;;;1.37;;
677;SDS011;321;48.814;9.132;2023-08-30T12:02:47;1.70;;;1.30;;
677;SDS011;321;48.814;9.132;2023-08-30T12:05:13;1.40;;;1.30;;
677;SDS011;321;48.814;9.132;2023-08-30T12:07:39;1.70;;;1.50;;
677;SDS011;321;48.814;9.132;2023-08-30T12:10:08;1.80;;;1.50;;
677;SDS011;321;48.814;9.132;2023-08-30T12:12:35;2.00;;;1.70;;
677;SDS011;321;48.814;9.132;2023-08-30T12:15:07;1.40;;;1.27;;
677;SDS011;321;48.814;9.132;2023-08-30T12:17:37;1.17;;;1.07;;
677;SDS011;321;48.814;9.132;2023-08-30T12:20:02;2.13;;;1.67;;
677;SDS011;321;48.814;9.132;2023-08-30T12:22:38;1.80;;;1.70;;
677;SDS011;321;48.814;9.132;2023-08-30T12:25:14;2.70;;;1.57;;
677;SDS011;321;48.814;9.132;2023-08-30T12:27:44;1.23;;;1.13;;
677;SDS011;321;48.814;9.132;2023-08-30T12:30:10;3.67;;;1.50;;
677;SDS011;321;48.814;9.132;2023-08-30T12:32:36;1.00;;;0.90;;
677;SDS011;321;48.814;9.132;2023-08-30T12:35:01;1.83;;;1.30;;
677;SDS011;321;48.814;9.132;2023-08-30T12:37:27;1.70;;;1.60;;
677;SDS011;321;48.814;9.132;2023-08-30T12:39:52;1.67;;;1.57;;
677;SDS011;321;48.814;9.132;2023-08-30T12:42:18;5.47;;;1.30;;
677;SDS011;321;48.814;9.132;2023-08-30T12:44:44;1.40;;;1.30;;
677;SDS011;321;48.814;9.132;2023-08-30T12:47:10;1.10;;;0.97;;
677;SDS011;321;48.814;9.132;2023-08-30T12:49:38;1.10;;;0.90;;
677;SDS011;321;48.814;9.132;2023-08-30T12:52:04;1.40;;;1.10;;
677;SDS011;321;48.814;9.132;2023-08-30T12:54:30;2.40;;;1.23;;
677;SDS011;321;48.814;9.132;2023-08-30T12:56:56;1.40;;;1.30;;
677;SDS011;321;48.814;9.132;2023-08-30T12:59:21;1.40;;;1.10;;
677;SDS011;321;48.814;9.132;2023-08-30T13:01:47;2.10;;;1.50;;
677;SDS011;321;48.814;9.132;2023-08-30T13:04:12;1.00;;;0.77;;
677;SDS011;321;48.814;9.132;2023-08-30T13:06:38;1.70;;;1.53;;
677;SDS011;321;48.814;9.132;2023-08-30T13:09:04;1.93;;;1.07;;
677;SDS011;321;48.814;9.132;2023-08-30T13:11:30;2.00;;;1.50;;
677;SDS011;321;48.814;9.132;2023-08-30T13:13:57;1.20;;;1.00;;
677;SDS011;321;48.814;9.132;2023-08-30T13:16:23;1.20;;;1.00;;
677;SDS011;321;48.814;9.132;2023-08-30T13:18:49;1.10;;;0.87;;
677;SDS011;321;48.814;9.132;2023-08-30T13:21:15;1.20;;;0.80;;
677;SDS011;321;48.814;9.132;2023-08-30T13:23:40;2.80;;;1.40;;
677;SDS011;321;48.814;9.132;2023-08-30T13:26:06;1.73;;;1.03;;
677;SDS011;321;48.814;9.132;2023-08-30T13:28:32;1.20;;;1.03;;
677;SDS011;321;48.814;9.132;2023-08-30T13:30:59;2.07;;;1.87;;
677;SDS011;321;48.814;9.132;2023-08-30T13:33:25;1.23;;;0.90;;
677;SDS011;321;48.814;9.132;2023-08-30T13:35:52;1.30;;;1.10;;
677;SDS011;321;48.814;9.132;2023-08-30T13:38:17;1.40;;;1.30;;
677;SDS011;321;48.814;9.132;2023-08-30T13:40:43;1.10;;;1.00;;
677;SDS011;321;48.814;9.132;2023-08-30T13:43:09;3.23;;;1.20;;
677;SDS011;321;48.814;9.132;2023-08-30T13:45:35;1.83;;;1.30;;
677;SDS011;321;48.814;9.132;2023-08-30T13:48:01;1.47;;;0.93;;
677;SDS011;321;48.814;9.132;2023-08-30T13:50:27;1.17;;;1.03;;
677;SDS011;321;48.814;9.132;2023-08-30T13:52:55;1.10;;;0.80;;
677;SDS011;321;48.814;9.132;2023-08-30T13:55:21;1.77;;;1.50;;
677;SDS011;321;48.814;9.132;2023-08-30T13:57:47;1.20;;;0.93;;
677;SDS011;321;48.814;9.132;2023-08-30T14:00:13;1.10;;;0.93;;
677;SDS011;321;48.814;9.132;2023-08-30T14:02:39;2.43;;;1.43;;
677;SDS011;321;48.814;9.132;2023-08-30T14:05:04;1.30;;;0.93;;
677;SDS011;321;48.814;9.132;2023-08-30T14:07:30;1.50;;;1.40;;
677;SDS011;321;48.814;9.132;2023-08-30T14:09:56;1.27;;;1.10;;
677;SDS011;321;48.814;9.132;2023-08-30T14:12:22;1.20;;;0.97;;
677;SDS011;321;48.814;9.132;2023-08-30T14:14:48;1.20;;;0.87;;
677;SDS011;321;48.814;9.132;2023-08-30T14:17:14;1.63;;;0.97;;
677;SDS011;321;48.814;9.132;2023-08-30T14:19:39;1.30;;;1.10;;
677;SDS011;321;48.814;9.132;2023-08-30T14:22:05;1.10;;;1.00;;
677;SDS011;321;48.814;9.132;2023-08-30T14:24:34;1.13;;;0.80;;
677;SDS011;321;48.814;9.132;2023-08-30T14:27:03;1.73;;;1.13;;
677;SDS011;321;48.814;9.132;2023-08-30T14:29:28;1.83;;;1.60;;
677;SDS011;321;48.814;9.132;2023-08-30T14:31:54;1.60;;;1.13;;
677;SDS011;321;48.814;9.132;2023-08-30T14:34:20;1.50;;;1.07;;
677;SDS011;321;48.814;9.132;2023-08-30T14:36:45;3.10;;;1.43;;
677;SDS011;321;48.814;9.132;2023-08-30T14:39:13;1.90;;;1.20;;
677;SDS011;321;48.814;9.132;2023-08-30T14:41:39;1.00;;;0.80;;
677;SDS011;321;48.814;9.132;2023-08-30T14:44:04;1.20;;;0.80;;
677;SDS011;321;48.814;9.132;2023-08-30T14:46:30;1.10;;;0.83;;
677;SDS011;321;48.814;9.132;2023-08-30T14:48:56;0.93;;;0.77;;
677;SDS011;321;48.814;9.132;2023-08-30T14:51:21;2.70;;;1.10;;
677;SDS011;321;48.814;9.132;2023-08-30T14:53:47;1.57;;;1.47;;
677;SDS011;321;48.814;9.132;2023-08-30T14:56:12;1.43;;;1.00;;
677;SDS011;321;48.814;9.132;2023-08-30T14:58:38;1.40;;;1.30;;
677;SDS011;321;48.814;9.132;2023-08-30T15:01:04;1.40;;;1.10;;
677;SDS011;321;48.814;9.132;2023-08-30T15:03:30;3.00;;;1.67;;
677;SDS011;321;48.814;9.132;2023-08-30T15:05:55;1.60;;;1.50;;
677;SDS011;321;48.814;9.132;2023-08-30T15:08:22;1.30;;;1.20;;
677;SDS011;321;48.814;9.132;2023-08-30T15:10:51;0.90;;;0.80;;
677;SDS011;321;48.814;9.132;2023-08-30T15:13:28;2.10;;;0.90;;
677;SDS011;321;48.814;9.132;2023-08-30T15:15:53;1.40;;;1.03;;
677;SDS011;321;48.814;9.132;2023-08-30T15:18:19;1.93;;;1.10;;
677;SDS011;321;48.814;9.132;2023-08-30T15:20:45;1.20;;;1.00;;
677;SDS011;321;48.814;9.132;2023-08-30T15:23:12;1.27;;;0.83;;
677;SDS011;321;48.814;9.132;2023-08-30T15:25:42;1.33;;;1.03;;
677;SDS011;321;48.814;9.132;2023-08-30T15:28:11;0.80;;;0.60;;
677;SDS011;321;48.814;9.132;2023-08-30T15:30:41;0.90;;;0.57;;
677;SDS011;321;48.814;9.132;2023-08-30T15:33:10;0.90;;;0.70;;
677;SDS011;321;48.814;9.132;2023-08-30T15:35:36;1.17;;;1.07;;
677;SDS011;321;48.814;9.132;2023-08-30T15:38:03;1.00;;;0.90;;
677;SDS011;321;48.814;9.132;2023-08-30T15:40:28;1.20;;;1.07;;
677;SDS011;321;48.814;9.132;2023-08-30T15:42:54;0.97;;;0.80;;